Time;durP1;ratioP1;P1;durP2;ratioP2;P2;SDS_P1;SDS_P2;PMS_P1;PMS_P2;Temp;Humidity;BMP_temperature;BMP_pressure;BME280_temperature;BME280_humidity;BME280_pressure;Samples;Min_cycle;Max_cycle;Signal;HPM_P1;HPM_P2
2023/05/21 00:01:41;;;;;;;14.50;11.20;;;17.30;99.90;;;;;;5028925;28;20221;-72
2023/05/21 00:04:07;;;;;;;14.60;11.47;;;17.30;99.90;;;;;;5025277;28;20690;-72
2023/05/21 00:06:36;;;;;;;15.40;12.23;;;17.30;99.90;;;;;;5012875;28;20456;-72
2023/05/21 00:09:05;;;;;;;14.50;10.77;;;17.40;99.90;;;;;;5003843;28;20640;-72
2023/05/21 00:11:31;;;;;;;16.40;11.70;;;17.40;99.90;;;;;;5015805;28;20483;-72
2023/05/21 00:13:57;;;;;;;17.07;11.20;;;17.40;99.90;;;;;;5021657;28;20977;-72
2023/05/21 00:16:24;;;;;;;13.20;11.30;;;17.30;99.90;;;;;;5023441;28;20460;-72
2023/05/21 00:18:50;;;;;;;12.37;10.77;;;17.30;99.90;;;;;;5024900;28;20472;-72
2023/05/21 00:21:16;;;;;;;15.30;10.67;;;17.30;99.90;;;;;;5031209;28;21326;-72
2023/05/21 00:23:44;;;;;;;13.90;10.57;;;17.30;99.90;;;;;;5024294;28;20220;-72
2023/05/21 00:26:10;;;;;;;15.50;11.60;;;17.30;99.90;;;;;;5005596;28;20559;-72
2023/05/21 00:28:35;;;;;;;12.93;10.57;;;17.40;99.90;;;;;;5016474;28;20554;-72
2023/05/21 00:31:01;;;;;;;14.83;10.67;;;17.30;99.90;;;;;;5031378;28;20731;-70
2023/05/21 00:33:28;;;;;;;13.67;10.60;;;17.40;99.90;;;;;;5030117;28;20217;-72
2023/05/21 00:35:55;;;;;;;17.70;12.07;;;17.40;99.90;;;;;;5028269;28;20228;-70
2023/05/21 00:38:22;;;;;;;13.10;9.50;;;17.30;99.90;;;;;;5026173;28;20530;-71
2023/05/21 00:40:48;;;;;;;15.10;10.97;;;17.40;99.90;;;;;;5029892;28;20462;-72
2023/05/21 00:43:14;;;;;;;14.27;10.70;;;17.30;99.90;;;;;;5013994;28;20492;-72
2023/05/21 00:45:43;;;;;;;13.63;11.03;;;17.30;99.90;;;;;;5017321;28;20969;-73
2023/05/21 00:48:09;;;;;;;16.13;11.87;;;17.30;99.90;;;;;;5024873;28;20255;-72
2023/05/21 00:50:38;;;;;;;15.30;10.37;;;17.20;99.90;;;;;;5015218;28;20467;-72
2023/05/21 00:53:08;;;;;;;13.03;10.37;;;17.30;99.90;;;;;;5019140;28;20468;-68
2023/05/21 00:55:36;;;;;;;12.23;9.67;;;17.30;99.90;;;;;;4995136;28;20468;-72
2023/05/21 00:58:03;;;;;;;13.73;10.60;;;17.30;99.90;;;;;;5000946;28;20526;-71
2023/05/21 01:00:33;;;;;;;16.53;11.10;;;17.20;99.90;;;;;;5003251;28;20472;-71
2023/05/21 01:03:03;;;;;;;14.70;10.80;;;17.30;99.90;;;;;;5029058;28;20462;-73
2023/05/21 01:05:29;;;;;;;12.70;10.27;;;17.20;99.90;;;;;;5017628;28;20996;-72
2023/05/21 01:07:56;;;;;;;13.33;10.30;;;17.10;99.90;;;;;;5001728;28;20464;-71
2023/05/21 01:10:23;;;;;;;16.20;10.63;;;17.10;99.90;;;;;;5004320;28;20480;-71
2023/05/21 01:12:51;;;;;;;15.73;10.90;;;17.00;99.90;;;;;;5021631;28;20492;-71
2023/05/21 01:15:17;;;;;;;15.70;10.83;;;17.10;99.90;;;;;;5017193;28;20529;-70
2023/05/21 01:17:44;;;;;;;11.83;9.37;;;17.10;99.90;;;;;;5008198;28;20483;-71
2023/05/21 01:20:10;;;;;;;13.63;11.20;;;17.10;99.90;;;;;;5024895;28;20358;-72
2023/05/21 01:22:54;;;;;;;13.43;10.60;;;17.20;99.90;;;;;;5010377;28;20864;-72
2023/05/21 01:25:22;;;;;;;13.40;10.20;;;17.10;99.90;;;;;;5022442;28;20976;-72
2023/05/21 01:27:48;;;;;;;13.17;10.40;;;17.10;99.90;;;;;;5007967;28;20533;-72
2023/05/21 01:30:17;;;;;;;12.37;9.67;;;17.10;99.90;;;;;;5003649;28;20947;-71
2023/05/21 01:33:04;;;;;;;14.33;9.70;;;17.20;99.90;;;;;;5017709;28;20448;-72
2023/05/21 01:35:45;;;;;;;13.03;9.90;;;17.20;99.90;;;;;;4998545;28;21027;-72
2023/05/21 01:38:25;;;;;;;14.90;10.53;;;17.20;99.90;;;;;;5027788;28;20545;-72
2023/05/21 01:40:57;;;;;;;11.10;9.80;;;17.20;99.90;;;;;;5030627;28;20459;-72
2023/05/21 01:43:26;;;;;;;12.33;9.43;;;17.20;99.90;;;;;;5022875;28;20574;-71
2023/05/21 01:45:54;;;;;;;13.87;10.90;;;17.20;99.90;;;;;;5020045;28;20470;-72
2023/05/21 01:48:22;;;;;;;11.83;9.97;;;17.10;99.90;;;;;;5022162;28;20476;-72
2023/05/21 01:50:48;;;;;;;14.47;9.83;;;17.00;99.90;;;;;;5025149;28;20466;-72
2023/05/21 01:53:16;;;;;;;11.47;9.20;;;17.00;99.90;;;;;;5040084;28;20460;-72
2023/05/21 01:55:42;;;;;;;14.73;10.57;;;17.00;99.90;;;;;;5023769;28;20475;-71
2023/05/21 01:58:08;;;;;;;14.20;8.97;;;17.00;99.90;;;;;;5006338;28;20470;-72
2023/05/21 02:00:34;;;;;;;12.60;10.00;;;17.00;99.90;;;;;;4998751;28;20466;-71
2023/05/21 02:03:00;;;;;;;13.10;9.67;;;17.00;99.90;;;;;;5027424;28;20474;-71
2023/05/21 02:05:26;;;;;;;12.53;10.10;;;17.00;99.90;;;;;;5017778;28;20228;-71
2023/05/21 02:07:52;;;;;;;11.70;9.23;;;17.00;99.90;;;;;;5040609;28;20220;-72
2023/05/21 02:10:18;;;;;;;14.10;10.50;;;17.00;99.90;;;;;;5038210;28;20300;-72
2023/05/21 02:12:44;;;;;;;12.47;9.57;;;16.90;99.90;;;;;;5037806;28;20610;-73
2023/05/21 02:15:09;;;;;;;14.93;10.53;;;17.00;99.90;;;;;;5023079;28;20472;-72
2023/05/21 02:17:37;;;;;;;14.13;10.67;;;16.90;99.90;;;;;;5001761;28;20209;-72
2023/05/21 02:20:10;;;;;;;16.20;10.90;;;16.90;99.90;;;;;;5005631;28;20312;-71
2023/05/21 02:22:39;;;;;;;12.67;10.10;;;16.90;99.90;;;;;;5004827;28;20463;-71
2023/05/21 02:25:09;;;;;;;12.80;10.43;;;16.90;99.90;;;;;;5020007;28;20461;-73
2023/05/21 02:27:36;;;;;;;13.93;10.27;;;16.90;99.90;;;;;;5021548;28;20463;-73
2023/05/21 02:30:20;;;;;;;12.57;10.10;;;17.00;99.90;;;;;;5020619;28;20464;-71
2023/05/21 02:32:47;;;;;;;15.10;11.00;;;17.00;99.90;;;;;;5021792;28;20459;-73
2023/05/21 02:35:13;;;;;;;12.47;10.00;;;17.00;99.90;;;;;;5025753;28;20460;-72
2023/05/21 02:37:39;;;;;;;13.20;9.30;;;17.00;99.90;;;;;;5020549;28;20968;-72
2023/05/21 02:40:06;;;;;;;12.97;10.03;;;17.00;99.90;;;;;;5024202;28;20315;-72
2023/05/21 02:42:33;;;;;;;14.27;10.37;;;17.10;99.90;;;;;;5009747;28;20448;-72
2023/05/21 02:44:59;;;;;;;13.47;10.13;;;17.00;99.90;;;;;;5020332;28;21044;-71
2023/05/21 02:47:25;;;;;;;14.07;10.90;;;17.00;99.90;;;;;;5019106;28;20546;-73
2023/05/21 02:49:51;;;;;;;12.73;9.83;;;17.00;99.90;;;;;;5011185;28;20224;-73
2023/05/21 02:52:18;;;;;;;12.13;9.30;;;17.00;99.90;;;;;;5000470;28;20465;-72
2023/05/21 02:54:45;;;;;;;11.23;9.03;;;16.90;99.90;;;;;;5006759;28;20506;-72
2023/05/21 02:57:12;;;;;;;15.20;9.97;;;16.80;99.90;;;;;;5018745;28;20581;-72
2023/05/21 02:59:37;;;;;;;11.80;9.03;;;16.90;99.90;;;;;;5004895;28;21085;-72
2023/05/21 03:02:03;;;;;;;12.60;10.03;;;16.90;99.90;;;;;;5008978;28;20232;-70
2023/05/21 03:04:29;;;;;;;12.47;9.30;;;16.90;99.90;;;;;;5017707;28;20223;-71
2023/05/21 03:06:56;;;;;;;11.97;10.10;;;16.90;99.90;;;;;;5021228;28;20233;-72
2023/05/21 03:09:21;;;;;;;13.17;10.00;;;16.90;99.90;;;;;;5012498;28;20205;-72
2023/05/21 03:11:50;;;;;;;10.60;9.10;;;16.90;99.90;;;;;;5029450;28;20463;-72
2023/05/21 03:14:16;;;;;;;11.77;9.97;;;16.90;99.90;;;;;;5017843;28;20743;-72
2023/05/21 03:16:42;;;;;;;10.93;8.80;;;17.00;99.90;;;;;;5009156;28;20544;-71
2023/05/21 03:19:08;;;;;;;12.47;9.73;;;17.00;99.90;;;;;;5017294;28;20227;-72
2023/05/21 03:21:35;;;;;;;16.03;10.47;;;17.00;99.90;;;;;;5020223;28;20452;-70
2023/05/21 03:24:01;;;;;;;13.33;9.73;;;17.00;99.90;;;;;;5018213;28;20534;-72
2023/05/21 03:26:28;;;;;;;10.30;9.00;;;17.00;99.90;;;;;;5004117;28;20495;-72
2023/05/21 03:28:55;;;;;;;14.87;9.83;;;17.00;99.90;;;;;;5020814;28;20455;-73
2023/05/21 03:31:22;;;;;;;10.53;9.40;;;17.00;99.90;;;;;;5006674;28;20534;-73
2023/05/21 03:34:07;;;;;;;13.23;10.10;;;17.00;99.90;;;;;;5014176;28;20463;-70
2023/05/21 03:36:33;;;;;;;10.33;9.20;;;17.00;99.90;;;;;;5007839;28;20486;-72
2023/05/21 03:38:59;;;;;;;13.20;9.60;;;17.00;99.90;;;;;;5025534;28;20479;-69
2023/05/21 03:41:25;;;;;;;14.23;9.47;;;16.80;99.90;;;;;;5006639;28;20308;-72
2023/05/21 03:43:56;;;;;;;16.63;10.10;;;16.80;99.90;;;;;;5019608;28;20470;-71
2023/05/21 03:46:27;;;;;;;12.07;8.90;;;16.80;99.90;;;;;;5013974;28;20969;-70
2023/05/21 03:49:03;;;;;;;13.60;10.87;;;16.70;99.90;;;;;;5011704;28;20456;-71
2023/05/21 03:51:31;;;;;;;15.53;10.10;;;16.70;99.90;;;;;;5016525;28;20506;-71
2023/05/21 03:53:58;;;;;;;11.43;9.37;;;16.60;99.90;;;;;;5003252;28;20455;-71
2023/05/21 03:56:25;;;;;;;13.53;9.83;;;16.60;99.90;;;;;;5015774;28;20456;-71
2023/05/21 03:58:51;;;;;;;13.57;9.97;;;16.60;99.90;;;;;;5019484;28;20539;-72
2023/05/21 04:01:18;;;;;;;14.37;10.40;;;16.60;99.90;;;;;;5015025;28;20962;-72
2023/05/21 04:03:45;;;;;;;12.60;9.37;;;16.60;99.90;;;;;;5015924;28;20551;-71
2023/05/21 04:06:11;;;;;;;11.60;9.80;;;16.60;99.90;;;;;;5025266;28;20480;-72
2023/05/21 04:08:38;;;;;;;12.50;9.73;;;16.60;99.90;;;;;;5018857;28;20467;-72
2023/05/21 04:11:04;;;;;;;16.70;9.90;;;16.60;99.90;;;;;;5019041;28;21023;-70
2023/05/21 04:13:29;;;;;;;16.13;11.63;;;16.60;99.90;;;;;;4998697;28;20303;-72
2023/05/21 04:15:55;;;;;;;14.57;10.53;;;16.60;99.90;;;;;;5018257;28;20248;-69
2023/05/21 04:18:22;;;;;;;11.03;9.70;;;16.60;99.90;;;;;;5014750;28;20296;-71
2023/05/21 04:20:48;;;;;;;12.30;9.00;;;16.60;99.90;;;;;;5019895;28;20221;-72
2023/05/21 04:23:15;;;;;;;12.53;9.70;;;16.70;99.90;;;;;;5014952;28;20594;-72
2023/05/21 04:25:41;;;;;;;12.63;9.60;;;16.60;99.90;;;;;;5018780;28;20464;-72
2023/05/21 04:28:06;;;;;;;15.23;9.70;;;16.60;99.90;;;;;;5019216;28;20471;-72
2023/05/21 04:30:34;;;;;;;11.20;9.13;;;16.60;99.90;;;;;;5018150;28;20455;-72
2023/05/21 04:33:01;;;;;;;13.20;10.00;;;16.70;99.90;;;;;;5006273;28;20346;-71
2023/05/21 04:35:27;;;;;;;15.33;10.87;;;16.70;99.90;;;;;;5028659;28;20456;-72
2023/05/21 04:37:53;;;;;;;12.23;9.60;;;16.70;99.90;;;;;;5019601;28;20466;-71
2023/05/21 04:40:23;;;;;;;14.77;10.13;;;16.70;99.90;;;;;;5024292;28;20212;-73
2023/05/21 04:42:49;;;;;;;11.40;9.73;;;16.70;99.90;;;;;;5026152;28;20475;-71
2023/05/21 04:45:19;;;;;;;15.37;9.13;;;16.70;99.90;;;;;;5020952;28;20936;-72
2023/05/21 04:47:46;;;;;;;13.93;9.97;;;16.70;99.90;;;;;;5016852;28;20546;-70
2023/05/21 04:50:12;;;;;;;11.00;9.67;;;16.70;99.90;;;;;;5025635;28;20550;-73
2023/05/21 04:52:39;;;;;;;12.70;9.17;;;16.70;99.90;;;;;;5011460;28;20213;-73
2023/05/21 04:55:06;;;;;;;11.60;9.03;;;16.70;99.90;;;;;;5029368;28;20220;-71
2023/05/21 04:57:32;;;;;;;13.33;10.03;;;16.70;99.90;;;;;;5022387;28;20523;-72
2023/05/21 04:59:59;;;;;;;12.90;10.40;;;16.70;99.90;;;;;;5018647;28;20479;-72
2023/05/21 05:02:25;;;;;;;12.43;9.03;;;16.70;99.90;;;;;;5026729;28;20466;-72
2023/05/21 05:04:51;;;;;;;11.30;9.53;;;16.70;99.90;;;;;;5017264;28;20475;-72
2023/05/21 05:07:17;;;;;;;11.40;8.50;;;16.70;99.90;;;;;;5002895;28;20232;-72
2023/05/21 05:09:42;;;;;;;14.60;9.77;;;16.80;99.90;;;;;;5018424;28;20228;-72
2023/05/21 05:12:08;;;;;;;12.60;9.60;;;16.80;99.90;;;;;;5035259;28;20228;-72
2023/05/21 05:14:34;;;;;;;10.20;9.07;;;16.80;99.90;;;;;;5003825;28;20209;-72
2023/05/21 05:17:01;;;;;;;11.77;9.67;;;16.80;99.90;;;;;;5024775;28;20299;-70
2023/05/21 05:19:27;;;;;;;10.50;9.23;;;16.80;99.90;;;;;;5004673;28;20324;-72
2023/05/21 05:21:53;;;;;;;13.97;10.20;;;16.80;99.90;;;;;;5034822;28;21012;-72
2023/05/21 05:24:20;;;;;;;13.60;10.37;;;16.80;99.90;;;;;;5005512;28;20312;-71
2023/05/21 05:26:46;;;;;;;12.57;9.70;;;16.80;99.90;;;;;;5023935;28;20547;-72
2023/05/21 05:29:12;;;;;;;12.50;9.07;;;16.80;99.90;;;;;;5006387;28;20209;-72
2023/05/21 05:31:38;;;;;;;12.50;9.20;;;16.80;99.90;;;;;;5029181;28;20212;-71
2023/05/21 05:34:04;;;;;;;15.43;9.60;;;16.80;99.90;;;;;;5024369;28;20551;-71
2023/05/21 05:36:30;;;;;;;12.70;9.27;;;16.90;99.90;;;;;;5008531;28;20221;-73
2023/05/21 05:38:56;;;;;;;13.23;9.70;;;16.90;99.90;;;;;;5033374;28;20224;-72
2023/05/21 05:41:21;;;;;;;11.80;10.00;;;16.90;99.90;;;;;;5001193;28;20460;-72
2023/05/21 05:43:48;;;;;;;11.43;8.97;;;17.00;99.90;;;;;;5024858;28;20235;-72
2023/05/21 05:46:14;;;;;;;11.93;9.23;;;17.00;99.90;;;;;;5018436;28;20542;-70
2023/05/21 05:48:40;;;;;;;12.60;8.87;;;17.00;99.90;;;;;;5006467;28;20465;-71
2023/05/21 05:51:06;;;;;;;15.17;10.00;;;17.00;99.90;;;;;;5021580;28;20296;-70
2023/05/21 05:53:32;;;;;;;13.37;10.13;;;17.00;99.90;;;;;;5002189;28;20224;-71
2023/05/21 05:55:58;;;;;;;13.03;9.70;;;17.10;99.90;;;;;;5006790;28;20460;-70
2023/05/21 05:58:24;;;;;;;12.37;10.03;;;17.10;99.90;;;;;;5006263;28;20212;-72
2023/05/21 06:01:05;;;;;;;11.30;9.10;;;17.20;99.90;;;;;;5014647;28;20838;-73
2023/05/21 06:03:31;;;;;;;13.30;9.47;;;17.20;99.90;;;;;;5023158;28;20451;-72
2023/05/21 06:05:57;;;;;;;12.00;8.93;;;17.20;99.90;;;;;;5024150;28;20218;-72
2023/05/21 06:08:24;;;;;;;10.17;8.90;;;17.30;99.90;;;;;;5002215;28;20214;-72
2023/05/21 06:10:51;;;;;;;14.53;10.27;;;17.30;99.90;;;;;;5021793;28;20456;-72
2023/05/21 06:13:16;;;;;;;14.03;10.27;;;17.40;99.90;;;;;;5022432;28;20479;-72
2023/05/21 06:15:42;;;;;;;9.83;8.80;;;17.40;99.90;;;;;;5024614;28;20221;-73
2023/05/21 06:18:08;;;;;;;14.17;10.40;;;17.40;99.90;;;;;;5015128;28;20224;-74
2023/05/21 06:20:33;;;;;;;22.37;9.93;;;17.40;99.90;;;;;;5005501;28;20233;-73
2023/05/21 06:22:59;;;;;;;12.87;9.73;;;17.50;99.90;;;;;;5013209;28;20291;-72
2023/05/21 06:25:25;;;;;;;10.10;8.97;;;17.50;99.90;;;;;;5000312;28;20601;-72
2023/05/21 06:27:51;;;;;;;11.50;10.17;;;17.60;99.90;;;;;;5003630;28;20300;-71
2023/05/21 06:30:23;;;;;;;16.10;9.30;;;17.60;99.90;;;;;;5025806;28;20225;-72
2023/05/21 06:32:49;;;;;;;10.53;9.43;;;17.60;99.90;;;;;;5022595;28;20467;-73
2023/05/21 06:35:15;;;;;;;11.07;8.80;;;17.70;99.90;;;;;;5000127;28;20682;-72
2023/05/21 06:37:41;;;;;;;13.40;10.60;;;17.70;99.90;;;;;;5004427;28;20347;-72
2023/05/21 06:40:08;;;;;;;10.57;8.30;;;17.80;99.90;;;;;;5016065;28;20295;-72
2023/05/21 06:42:35;;;;;;;14.90;10.10;;;17.90;99.90;;;;;;5018536;28;20502;-72
2023/05/21 06:45:19;;;;;;;14.03;9.87;;;17.90;99.90;;;;;;5018552;28;21020;-71
2023/05/21 06:47:47;;;;;;;13.83;10.43;;;18.00;99.90;;;;;;5018133;28;20979;-71
2023/05/21 06:50:13;;;;;;;11.17;9.97;;;18.10;99.90;;;;;;5011011;28;20475;-74
2023/05/21 06:52:39;;;;;;;12.20;10.13;;;18.20;99.90;;;;;;5010032;28;20594;-72
2023/05/21 06:55:06;;;;;;;15.03;10.47;;;18.20;99.90;;;;;;5019164;28;20467;-72
2023/05/21 06:57:51;;;;;;;12.57;10.63;;;18.30;99.90;;;;;;5034566;28;20455;-72
2023/05/21 07:00:17;;;;;;;13.90;9.80;;;18.30;99.90;;;;;;5002654;28;20475;-73
2023/05/21 07:02:43;;;;;;;15.50;8.90;;;18.40;99.90;;;;;;5021018;28;20217;-72
2023/05/21 07:05:08;;;;;;;12.63;10.00;;;18.50;99.90;;;;;;5020484;28;20685;-72
2023/05/21 07:07:35;;;;;;;13.57;10.47;;;18.60;99.90;;;;;;4997596;28;20279;-72
2023/05/21 07:10:01;;;;;;;12.30;9.93;;;18.70;99.90;;;;;;5031433;28;20217;-71
2023/05/21 07:12:28;;;;;;;10.83;9.63;;;18.90;99.90;;;;;;5010735;28;20535;-71
2023/05/21 07:14:54;;;;;;;10.23;9.13;;;19.00;99.90;;;;;;5021867;28;20528;-72
2023/05/21 07:17:19;;;;;;;12.83;10.40;;;19.10;99.90;;;;;;5026113;28;20261;-73
2023/05/21 07:19:45;;;;;;;12.07;9.17;;;19.20;99.90;;;;;;5008572;28;20224;-73
2023/05/21 07:22:11;;;;;;;15.40;10.90;;;19.40;99.90;;;;;;5009543;28;20217;-70
2023/05/21 07:24:38;;;;;;;14.33;10.23;;;19.50;99.90;;;;;;4999261;28;20312;-72
2023/05/21 07:27:05;;;;;;;13.70;10.87;;;19.60;99.90;;;;;;5027172;28;20546;-70
2023/05/21 07:29:32;;;;;;;10.50;9.40;;;19.50;99.90;;;;;;5006126;28;20210;-71
2023/05/21 07:31:58;;;;;;;15.00;10.90;;;19.50;99.90;;;;;;5035201;28;20497;-71
2023/05/21 07:34:25;;;;;;;18.57;10.17;;;19.60;99.90;;;;;;5031495;28;20550;-72
2023/05/21 07:36:51;;;;;;;12.80;9.93;;;19.70;99.90;;;;;;5009275;28;20741;-71
2023/05/21 07:39:17;;;;;;;11.50;9.30;;;19.90;99.90;;;;;;5045533;28;20534;-73
2023/05/21 07:41:43;;;;;;;11.77;10.27;;;20.00;99.90;;;;;;5030459;28;20722;-73
2023/05/21 07:44:09;;;;;;;13.70;10.50;;;20.10;99.90;;;;;;5043922;28;20526;-71
2023/05/21 07:46:39;;;;;;;13.30;10.33;;;20.20;99.90;;;;;;5014807;28;20840;-74
2023/05/21 07:49:04;;;;;;;15.63;9.87;;;20.40;99.90;;;;;;5023546;28;20459;-73
2023/05/21 07:51:31;;;;;;;12.60;9.70;;;20.50;99.90;;;;;;5030016;28;20326;-71
2023/05/21 07:53:56;;;;;;;11.23;9.20;;;20.40;99.90;;;;;;5007626;28;20209;-72
2023/05/21 07:56:31;;;;;;;11.10;9.10;;;20.70;99.90;;;;;;5024548;28;20458;-71
2023/05/21 07:58:56;;;;;;;14.00;12.07;;;20.80;99.90;;;;;;5025863;28;20506;-73
2023/05/21 08:01:27;;;;;;;12.07;10.17;;;20.70;99.90;;;;;;5021708;28;20460;-73
2023/05/21 08:03:52;;;;;;;15.50;10.63;;;20.90;99.90;;;;;;5033391;28;20468;-71
2023/05/21 08:06:18;;;;;;;11.50;9.73;;;21.20;99.90;;;;;;5024581;28;20488;-71
2023/05/21 08:08:44;;;;;;;12.40;9.57;;;21.20;99.90;;;;;;5012152;28;20594;-74
2023/05/21 08:11:10;;;;;;;12.90;9.80;;;21.30;99.90;;;;;;5029821;28;20288;-74
2023/05/21 08:13:36;;;;;;;13.27;10.30;;;21.40;99.90;;;;;;5017479;28;20436;-71
2023/05/21 08:16:04;;;;;;;11.60;10.40;;;21.40;99.90;;;;;;5020479;28;20459;-71
2023/05/21 08:18:30;;;;;;;11.40;10.17;;;21.40;99.90;;;;;;5024083;28;20502;-73
2023/05/21 08:20:56;;;;;;;10.30;9.30;;;21.50;99.90;;;;;;5025670;28;20460;-71
2023/05/21 08:23:23;;;;;;;11.37;9.70;;;21.50;99.90;;;;;;5007413;28;20223;-72
2023/05/21 08:25:52;;;;;;;12.70;10.63;;;21.60;99.90;;;;;;5019010;28;20499;-71
2023/05/21 08:28:21;;;;;;;11.93;9.80;;;21.60;99.90;;;;;;5019354;28;20885;-71
2023/05/21 08:30:46;;;;;;;12.63;10.93;;;21.60;99.90;;;;;;5014444;28;20483;-71
2023/05/21 08:33:12;;;;;;;14.93;10.77;;;21.60;99.90;;;;;;5029411;28;20487;-73
2023/05/21 08:35:38;;;;;;;11.50;10.23;;;21.70;99.90;;;;;;5020389;28;20217;-73
2023/05/21 08:38:23;;;;;;;12.63;10.93;;;21.70;99.90;;;;;;5022899;28;20466;-73
2023/05/21 08:41:06;;;;;;;11.17;10.00;;;21.90;99.90;;;;;;5016045;28;20458;-73
2023/05/21 08:43:33;;;;;;;10.10;8.80;;;21.80;99.90;;;;;;5032675;28;20459;-73
2023/05/21 08:46:02;;;;;;;11.33;10.07;;;21.90;99.90;;;;;;5020934;28;20517;-72
2023/05/21 08:48:31;;;;;;;10.13;9.00;;;21.80;99.90;;;;;;5009394;28;20455;-73
2023/05/21 08:50:58;;;;;;;11.00;9.80;;;21.80;99.90;;;;;;5009001;28;20463;-74
2023/05/21 08:53:31;;;;;;;12.20;9.83;;;21.90;99.90;;;;;;5025214;28;21005;-73
2023/05/21 08:55:57;;;;;;;11.13;10.03;;;21.90;99.90;;;;;;5033810;28;20814;-74
2023/05/21 08:58:32;;;;;;;13.10;10.40;;;22.10;99.90;;;;;;5017943;28;20456;-73
2023/05/21 09:00:58;;;;;;;12.13;10.43;;;22.10;99.90;;;;;;5033944;28;20443;-73
2023/05/21 09:03:28;;;;;;;12.80;9.10;;;22.10;99.90;;;;;;5010888;28;20451;-73
2023/05/21 09:05:54;;;;;;;11.60;10.00;;;22.30;99.90;;;;;;5016026;28;20466;-73
2023/05/21 09:08:29;;;;;;;11.50;10.40;;;22.20;99.90;;;;;;5013383;28;20471;-72
2023/05/21 09:11:02;;;;;;;13.27;9.50;;;22.30;99.90;;;;;;5008511;28;20466;-72
2023/05/21 09:13:33;;;;;;;11.30;10.17;;;22.30;99.90;;;;;;5018236;28;20467;-72
2023/05/21 09:16:04;;;;;;;11.40;10.20;;;22.30;99.90;;;;;;5029973;28;20498;-73
2023/05/21 09:18:30;;;;;;;13.57;10.40;;;22.40;99.90;;;;;;5028016;28;20838;-73
2023/05/21 09:21:25;;;;;;;11.13;10.03;;;22.40;99.90;;;;;;5038928;28;20984;-70
2023/05/21 09:23:56;;;;;;;12.50;9.80;;;22.40;99.90;;;;;;5027245;28;20454;-72
2023/05/21 09:26:23;;;;;;;13.83;10.23;;;22.40;99.90;;;;;;5041059;28;20562;-73
2023/05/21 09:28:50;;;;;;;14.00;10.37;;;22.40;99.90;;;;;;5038041;28;20511;-71
2023/05/21 09:31:17;;;;;;;11.70;10.30;;;22.30;99.90;;;;;;5029272;28;20501;-72
2023/05/21 09:33:47;;;;;;;11.83;10.53;;;22.30;99.90;;;;;;5029994;28;20456;-73
2023/05/21 09:36:13;;;;;;;12.77;11.30;;;22.40;99.90;;;;;;5009298;28;20220;-72
2023/05/21 09:38:38;;;;;;;12.60;10.60;;;22.40;99.90;;;;;;5032858;28;20455;-74
2023/05/21 09:41:08;;;;;;;13.23;11.93;;;22.50;99.90;;;;;;5015432;28;20235;-74
2023/05/21 09:43:35;;;;;;;12.07;10.87;;;22.40;99.90;;;;;;5033408;28;20681;-70
2023/05/21 09:46:01;;;;;;;11.10;10.00;;;22.50;99.90;;;;;;5029469;28;20900;-71
2023/05/21 09:48:39;;;;;;;12.00;10.40;;;22.40;99.90;;;;;;5030572;28;20463;-75
2023/05/21 09:51:13;;;;;;;12.63;9.90;;;22.30;99.90;;;;;;5024921;28;20460;-74
2023/05/21 09:53:48;;;;;;;10.97;9.77;;;22.30;99.90;;;;;;5031499;28;20984;-69
2023/05/21 09:56:16;;;;;;;13.60;11.10;;;22.30;99.90;;;;;;5003496;28;20479;-71
2023/05/21 09:58:42;;;;;;;11.50;10.30;;;22.30;99.90;;;;;;5022229;28;20448;-72
2023/05/21 10:01:09;;;;;;;11.20;10.00;;;22.40;99.90;;;;;;5006817;28;20457;-70
2023/05/21 10:03:41;;;;;;;13.60;11.37;;;22.60;99.90;;;;;;5021423;28;20456;-71
2023/05/21 10:06:10;;;;;;;16.43;13.20;;;22.60;99.90;;;;;;5028574;28;20462;-70
2023/05/21 10:08:43;;;;;;;12.20;10.90;;;22.60;99.90;;;;;;5010868;28;20471;-72
2023/05/21 10:11:11;;;;;;;12.07;10.70;;;22.60;99.90;;;;;;5045896;28;20577;-73
2023/05/21 10:13:42;;;;;;;11.53;10.43;;;22.60;99.90;;;;;;5032369;28;21500;-72
2023/05/21 10:16:08;;;;;;;13.00;10.20;;;22.60;99.90;;;;;;5015104;28;20454;-70
2023/05/21 10:18:37;;;;;;;12.40;10.33;;;22.50;99.90;;;;;;5016663;28;20448;-71
2023/05/21 10:21:06;;;;;;;10.10;9.10;;;22.50;99.90;;;;;;5028293;28;20493;-72
2023/05/21 10:23:35;;;;;;;10.67;8.80;;;22.50;99.90;;;;;;5016170;28;20472;-70
2023/05/21 10:26:01;;;;;;;13.30;9.80;;;22.40;99.90;;;;;;5004350;28;20487;-70
2023/05/21 10:28:29;;;;;;;11.77;9.50;;;22.50;99.90;;;;;;5014091;28;20525;-72
2023/05/21 10:30:56;;;;;;;11.53;9.50;;;22.40;99.90;;;;;;5029007;28;21073;-71
2023/05/21 10:33:23;;;;;;;10.40;9.40;;;22.50;99.90;;;;;;5026223;28;20475;-72
2023/05/21 10:35:50;;;;;;;9.27;8.30;;;22.60;99.90;;;;;;5015827;28;21036;-72
2023/05/21 10:38:19;;;;;;;11.93;9.70;;;22.60;99.90;;;;;;5035030;28;20820;-73
2023/05/21 10:40:47;;;;;;;9.00;8.20;;;22.60;99.90;;;;;;5029751;28;20462;-72
2023/05/21 10:43:54;;;;;;;13.17;8.70;;;22.60;99.90;;;;;;5022953;28;20471;-72
2023/05/21 10:46:42;;;;;;;11.30;9.67;;;22.60;99.90;;;;;;4976825;28;20516;-71
2023/05/21 10:49:50;;;;;;;13.93;9.90;;;22.70;99.90;;;;;;5029249;28;20455;-72
2023/05/21 10:52:30;;;;;;;10.50;9.40;;;23.10;99.90;;;;;;5008848;28;20992;-72
2023/05/21 10:55:08;;;;;;;10.00;9.10;;;23.20;99.90;;;;;;5029204;28;20455;-72
2023/05/21 10:57:39;;;;;;;12.03;10.20;;;23.40;99.90;;;;;;5011717;28;20450;-71
2023/05/21 11:00:08;;;;;;;10.17;9.17;;;23.70;99.90;;;;;;5027014;28;20540;-70
2023/05/21 11:02:34;;;;;;;9.87;8.87;;;23.70;99.90;;;;;;5021314;28;20440;-72
2023/05/21 11:05:02;;;;;;;9.80;8.90;;;23.70;99.90;;;;;;5018605;28;20479;-73
2023/05/21 11:07:55;;;;;;;9.90;8.90;;;23.80;99.90;;;;;;5018333;28;20228;-71
2023/05/21 11:10:39;;;;;;;11.13;9.53;;;23.90;99.90;;;;;;5025386;28;20479;-72
2023/05/21 11:13:15;;;;;;;9.63;8.60;;;23.80;99.90;;;;;;5031573;28;20467;-71
2023/05/21 11:15:56;;;;;;;11.73;9.03;;;23.80;99.90;;;;;;5036638;28;20454;-72
2023/05/21 11:18:45;;;;;;;11.77;9.13;;;24.00;99.90;;;;;;5028364;28;20546;-71
2023/05/21 11:21:12;;;;;;;10.20;9.20;;;24.00;99.90;;;;;;4993001;28;20525;-73
2023/05/21 11:23:50;;;;;;;10.30;9.30;;;24.30;99.90;;;;;;5028585;28;20467;-73
2023/05/21 11:26:17;;;;;;;10.53;9.43;;;24.40;99.90;;;;;;5028062;28;20535;-72
2023/05/21 11:28:43;;;;;;;11.40;10.30;;;24.30;99.90;;;;;;5032695;28;20455;-74
2023/05/21 11:31:25;;;;;;;11.53;10.33;;;24.30;99.90;;;;;;5035443;28;20481;-72
2023/05/21 11:34:10;;;;;;;11.17;10.10;;;24.50;99.90;;;;;;5038203;28;20223;-73
2023/05/21 11:36:40;;;;;;;13.70;10.80;;;24.70;99.90;;;;;;5032112;28;20485;-72
2023/05/21 11:39:20;;;;;;;12.07;10.90;;;24.60;99.90;;;;;;5028420;28;20537;-73
2023/05/21 11:42:00;;;;;;;11.03;9.90;;;24.70;99.90;;;;;;5034548;28;20505;-73
2023/05/21 11:44:48;;;;;;;9.77;8.83;;;24.80;99.90;;;;;;5031221;28;20486;-71
2023/05/21 11:47:18;;;;;;;11.17;9.80;;;25.30;99.90;;;;;;5033678;28;20553;-73
2023/05/21 11:49:45;;;;;;;11.67;10.57;;;25.40;99.90;;;;;;5032462;28;20956;-72
2023/05/21 11:52:12;;;;;;;10.63;9.53;;;25.20;99.90;;;;;;5015935;28;20433;-70
2023/05/21 11:54:56;;;;;;;10.97;9.90;;;25.20;99.90;;;;;;5024967;28;20471;-72
2023/05/21 11:57:29;;;;;;;11.60;10.00;;;24.90;99.90;;;;;;5030546;28;20455;-71
2023/05/21 11:59:57;;;;;;;11.03;9.70;;;24.90;99.90;;;;;;5025849;28;20462;-72
2023/05/21 12:02:25;;;;;;;13.13;10.73;;;25.00;99.90;;;;;;5027767;28;20482;-71
2023/05/21 12:04:50;;;;;;;13.57;10.90;;;25.20;99.90;;;;;;5030502;28;20471;-72
2023/05/21 12:07:19;;;;;;;11.33;10.13;;;25.60;99.90;;;;;;5029539;28;20556;-72
2023/05/21 12:09:49;;;;;;;11.77;10.57;;;25.80;99.90;;;;;;5027276;28;20221;-72
2023/05/21 12:12:18;;;;;;;12.00;10.77;;;25.60;99.90;;;;;;5034606;28;20458;-72
2023/05/21 12:14:45;;;;;;;12.57;11.37;;;25.60;99.90;;;;;;5029420;28;21031;-72
2023/05/21 12:17:12;;;;;;;16.07;10.80;;;25.50;99.90;;;;;;5031208;28;20460;-72
2023/05/21 12:19:38;;;;;;;12.17;10.70;;;25.50;99.90;;;;;;5031400;28;20465;-73
2023/05/21 12:22:05;;;;;;;12.13;10.43;;;25.60;99.90;;;;;;5015894;28;20491;-72
2023/05/21 12:24:35;;;;;;;11.97;10.40;;;25.60;99.90;;;;;;5034759;28;20506;-71
2023/05/21 12:27:02;;;;;;;12.43;11.17;;;25.60;99.90;;;;;;5031999;28;20542;-71
2023/05/21 12:29:30;;;;;;;12.93;11.57;;;25.70;99.90;;;;;;5023380;28;20892;-72
2023/05/21 12:32:01;;;;;;;12.17;10.70;;;26.00;99.90;;;;;;5026293;28;20452;-73
2023/05/21 12:34:43;;;;;;;11.93;10.50;;;25.90;99.90;;;;;;5029258;28;20988;-73
2023/05/21 12:37:10;;;;;;;12.10;10.80;;;26.00;99.90;;;;;;5036165;28;21029;-72
2023/05/21 12:39:42;;;;;;;11.87;10.67;;;26.30;99.90;;;;;;5032930;28;20443;-72